Arrington Corner, Kentucky
Current Conditions -  °F | °C
As of 9:56 AM on Thursday 23 Oct 2014 (Local Time) from KOWB Reporting Station
Clear Clear  
Wind Chill: 52°   Ceiling: Unl
Heat Index: 52°   Visibility: 10mi
Dew Point: 43°   Wind: 10mph
Humidity: 71%   Direction: 140°SE
Pressure: 30.25"   Gusts: NA
Location:  37.8331°N, 86.7635°W
Report Text: KOWB 231456Z 14009KT 10SM CLR 11/06 A3025 RMK AO2 50000 T01110061 SLP245
Loading
Personal Weather Stations






























Interactive Weather Map
Tropical Storm Tracking
New forecast layout! Learn more

10-Day Weather Forecast

Advertisements
Track Severe Weather on mobile